Time;durP1;ratioP1;P1;durP2;ratioP2;P2;SDS_P1;SDS_P2;PMS_P1;PMS_P2;Temp;Humidity;BMP_temperature;BMP_pressure;BME280_temperature;BME280_humidity;BME280_pressure;Samples;Min_cycle;Max_cycle;Signal;HPM_P1;HPM_P2
2021/08/19 00:02:12;;;;;;;3.75;3.13;;;;;;;;;;5064248;28;20021;-81
2021/08/19 00:04:38;;;;;;;3.25;2.90;;;;;;;;;;5046722;28;20049;-81
2021/08/19 00:07:04;;;;;;;3.42;3.13;;;;;;;;;;5063884;28;20099;-82
2021/08/19 00:09:30;;;;;;;5.18;3.42;;;;;;;;;;5062342;28;20044;-82
2021/08/19 00:11:56;;;;;;;5.63;3.47;;;;;;;;;;5061286;28;20081;-82
2021/08/19 00:14:23;;;;;;;3.92;3.00;;;;;;;;;;5061369;28;20029;-82
2021/08/19 00:16:49;;;;;;;3.30;2.92;;;;;;;;;;5061023;28;20035;-81
2021/08/19 00:19:15;;;;;;;3.47;2.63;;;;;;;;;;5060610;28;20033;-82
2021/08/19 00:21:41;;;;;;;4.20;3.35;;;;;;;;;;5060942;28;20091;-82
2021/08/19 00:24:09;;;;;;;3.97;3.03;;;;;;;;;;5066663;28;20032;-80
2021/08/19 00:26:35;;;;;;;2.63;2.33;;;;;;;;;;5068085;28;20031;-81
2021/08/19 00:29:01;;;;;;;3.05;2.75;;;;;;;;;;5042360;28;20021;-82
2021/08/19 00:31:27;;;;;;;3.30;2.47;;;;;;;;;;5060456;28;20025;-82
2021/08/19 00:33:53;;;;;;;3.72;3.13;;;;;;;;;;5043452;28;20060;-82
2021/08/19 00:36:20;;;;;;;4.20;3.28;;;;;;;;;;5060447;28;20025;-82
2021/08/19 00:38:46;;;;;;;5.88;3.47;;;;;;;;;;5060970;28;20045;-82
2021/08/19 00:41:12;;;;;;;4.72;3.40;;;;;;;;;;5060860;28;20025;-81
2021/08/19 00:43:39;;;;;;;3.45;3.15;;;;;;;;;;5063086;28;20025;-81
2021/08/19 00:46:23;;;;;;;3.25;2.95;;;;;;;;;;5062278;28;20029;-82
2021/08/19 00:48:49;;;;;;;4.10;2.90;;;;;;;;;;5060895;28;20029;-81
2021/08/19 00:51:15;;;;;;;3.55;2.97;;;;;;;;;;5063084;28;20099;-78
2021/08/19 00:53:44;;;;;;;3.53;2.88;;;;;;;;;;5068991;28;20044;-81
2021/08/19 00:56:11;;;;;;;3.88;3.28;;;;;;;;;;5068001;28;20045;-81
2021/08/19 00:59:12;;;;;;;3.83;3.17;;;;;;;;;;5112033;27;20414;-80
2021/08/19 01:01:39;;;;;;;4.30;2.67;;;;;;;;;;5061224;28;20029;-80
2021/08/19 01:04:05;;;;;;;5.90;3.70;;;;;;;;;;5059799;28;20025;-81
2021/08/19 01:06:31;;;;;;;4.82;3.28;;;;;;;;;;5058597;28;20084;-82
2021/08/19 01:08:58;;;;;;;4.78;3.67;;;;;;;;;;5057889;28;20474;-82
2021/08/19 01:11:24;;;;;;;3.88;3.22;;;;;;;;;;5055532;28;20017;-82
2021/08/19 01:13:50;;;;;;;4.82;3.40;;;;;;;;;;5057556;28;20107;-82
2021/08/19 01:16:19;;;;;;;3.85;3.40;;;;;;;;;;5058408;28;20060;-80
2021/08/19 01:18:46;;;;;;;7.07;4.13;;;;;;;;;;5056779;28;20494;-81
2021/08/19 01:21:13;;;;;;;4.70;3.60;;;;;;;;;;5057944;28;20030;-80
2021/08/19 01:23:39;;;;;;;3.88;3.47;;;;;;;;;;5057334;28;20052;-79
2021/08/19 01:26:10;;;;;;;4.57;3.72;;;;;;;;;;5057208;28;20174;-81
2021/08/19 01:28:37;;;;;;;9.07;3.72;;;;;;;;;;5055648;28;20044;-81
2021/08/19 01:31:03;;;;;;;6.78;4.00;;;;;;;;;;5055564;28;20026;-82
2021/08/19 01:33:30;;;;;;;3.92;3.03;;;;;;;;;;5056293;28;20031;-82
2021/08/19 01:35:56;;;;;;;4.45;3.38;;;;;;;;;;5056239;28;20052;-82
2021/08/19 01:38:33;;;;;;;4.40;3.35;;;;;;;;;;5055696;28;20032;-81
2021/08/19 01:40:59;;;;;;;3.33;3.03;;;;;;;;;;5055684;28;20082;-82
2021/08/19 01:43:27;;;;;;;3.53;3.08;;;;;;;;;;5055778;28;20388;-80
2021/08/19 01:46:00;;;;;;;3.58;2.92;;;;;;;;;;5056033;28;20021;-82
2021/08/19 01:48:26;;;;;;;5.18;3.42;;;;;;;;;;5055216;28;20033;-82
2021/08/19 01:50:56;;;;;;;4.40;3.90;;;;;;;;;;5057376;28;20079;-82
2021/08/19 01:53:26;;;;;;;3.88;3.40;;;;;;;;;;5055556;28;20083;-82
2021/08/19 01:55:55;;;;;;;4.03;3.22;;;;;;;;;;5056617;28;20025;-81
2021/08/19 01:58:24;;;;;;;6.95;3.92;;;;;;;;;;5055567;28;20306;-82
2021/08/19 02:00:51;;;;;;;5.90;3.55;;;;;;;;;;5056104;28;20091;-82
2021/08/19 02:03:17;;;;;;;5.28;3.70;;;;;;;;;;5056843;28;20032;-82
2021/08/19 02:05:48;;;;;;;5.28;3.53;;;;;;;;;;5056521;28;20021;-82
2021/08/19 02:08:15;;;;;;;4.35;3.38;;;;;;;;;;5064141;28;20093;-79
2021/08/19 02:10:42;;;;;;;5.40;3.75;;;;;;;;;;5050027;28;20076;-82
2021/08/19 02:13:09;;;;;;;4.63;3.75;;;;;;;;;;5041072;28;20029;-81
2021/08/19 02:15:35;;;;;;;4.38;3.78;;;;;;;;;;5043464;28;20030;-82
2021/08/19 02:18:04;;;;;;;4.35;3.65;;;;;;;;;;5039529;28;20030;-81
2021/08/19 02:20:30;;;;;;;4.43;3.15;;;;;;;;;;5041362;28;20037;-82
2021/08/19 02:23:00;;;;;;;5.13;4.00;;;;;;;;;;5042734;28;20473;-81
2021/08/19 02:25:26;;;;;;;6.57;4.63;;;;;;;;;;5042409;28;20041;-82
2021/08/19 02:27:52;;;;;;;4.13;3.72;;;;;;;;;;5042005;28;20032;-82
2021/08/19 02:30:18;;;;;;;4.78;3.85;;;;;;;;;;5040590;28;20332;-82
2021/08/19 02:32:45;;;;;;;5.90;3.97;;;;;;;;;;5041020;28;20334;-81
2021/08/19 02:35:11;;;;;;;5.35;4.00;;;;;;;;;;5041698;28;20127;-82
2021/08/19 02:37:37;;;;;;;5.15;3.85;;;;;;;;;;5040661;28;20021;-82
2021/08/19 02:40:04;;;;;;;5.28;3.97;;;;;;;;;;5042713;28;20085;-82
2021/08/19 02:42:30;;;;;;;6.07;4.10;;;;;;;;;;5046581;28;20036;-80
2021/08/19 02:44:57;;;;;;;6.88;4.13;;;;;;;;;;5054098;28;20032;-80
2021/08/19 02:47:23;;;;;;;4.85;3.92;;;;;;;;;;5053365;28;20052;-81
2021/08/19 02:49:49;;;;;;;4.65;3.30;;;;;;;;;;5048109;28;20025;-81
2021/08/19 02:52:15;;;;;;;5.90;4.00;;;;;;;;;;5048791;28;20033;-82
2021/08/19 02:54:41;;;;;;;5.10;3.95;;;;;;;;;;5047591;28;20041;-80
2021/08/19 02:57:07;;;;;;;8.27;5.10;;;;;;;;;;5046258;28;20097;-81
2021/08/19 02:59:33;;;;;;;4.70;3.78;;;;;;;;;;5045797;28;20280;-81
2021/08/19 03:01:59;;;;;;;5.50;4.13;;;;;;;;;;5043575;28;20029;-81
2021/08/19 03:04:25;;;;;;;4.38;3.60;;;;;;;;;;5044538;28;20022;-81
2021/08/19 03:06:51;;;;;;;4.25;3.55;;;;;;;;;;5041627;28;20076;-81
2021/08/19 03:09:17;;;;;;;4.95;3.70;;;;;;;;;;5041102;28;20029;-82
2021/08/19 03:11:43;;;;;;;4.75;3.63;;;;;;;;;;5042274;28;20108;-81
2021/08/19 03:14:09;;;;;;;4.70;3.47;;;;;;;;;;5042041;28;20140;-81
2021/08/19 03:16:35;;;;;;;7.68;3.90;;;;;;;;;;5051529;28;20029;-81
2021/08/19 03:19:02;;;;;;;4.45;3.78;;;;;;;;;;5048359;28;20025;-81
2021/08/19 03:21:28;;;;;;;5.82;4.45;;;;;;;;;;5042009;28;20048;-82
2021/08/19 03:23:54;;;;;;;5.50;4.35;;;;;;;;;;5045845;28;20052;-81
2021/08/19 03:26:20;;;;;;;4.03;3.63;;;;;;;;;;5046378;28;20050;-81
2021/08/19 03:28:46;;;;;;;6.15;4.63;;;;;;;;;;5043055;28;20032;-81
2021/08/19 03:31:13;;;;;;;5.63;4.35;;;;;;;;;;5043237;28;20041;-82
2021/08/19 03:33:39;;;;;;;7.40;5.22;;;;;;;;;;5043346;28;20520;-82
2021/08/19 03:36:05;;;;;;;6.13;4.63;;;;;;;;;;5042797;28;20057;-81
2021/08/19 03:38:31;;;;;;;7.28;4.75;;;;;;;;;;5042244;28;20048;-81
2021/08/19 03:40:57;;;;;;;5.47;4.35;;;;;;;;;;5045229;28;20052;-79
2021/08/19 03:43:23;;;;;;;6.00;4.40;;;;;;;;;;5049604;28;20048;-80
2021/08/19 03:45:49;;;;;;;5.10;3.55;;;;;;;;;;5048571;28;20028;-80
2021/08/19 03:48:17;;;;;;;4.47;3.67;;;;;;;;;;5045118;28;20131;-82
2021/08/19 03:50:43;;;;;;;4.70;3.92;;;;;;;;;;5043201;28;20022;-81
2021/08/19 03:53:09;;;;;;;6.10;4.45;;;;;;;;;;5042802;28;20036;-81
2021/08/19 03:55:35;;;;;;;5.65;4.45;;;;;;;;;;5043407;28;20057;-80
2021/08/19 03:58:02;;;;;;;5.57;4.05;;;;;;;;;;5051313;28;20021;-81
2021/08/19 04:00:28;;;;;;;4.75;4.20;;;;;;;;;;5039770;28;20060;-82
2021/08/19 04:02:54;;;;;;;9.30;4.45;;;;;;;;;;5041597;28;20034;-82
2021/08/19 04:05:20;;;;;;;6.55;4.57;;;;;;;;;;5041993;28;20014;-82
2021/08/19 04:07:46;;;;;;;5.82;4.47;;;;;;;;;;5042429;28;20096;-82
2021/08/19 04:10:13;;;;;;;6.97;4.32;;;;;;;;;;5041629;28;20021;-83
2021/08/19 04:12:39;;;;;;;6.05;4.80;;;;;;;;;;5041422;28;20097;-79
2021/08/19 04:15:06;;;;;;;5.95;4.13;;;;;;;;;;5041860;28;20116;-80
2021/08/19 04:17:32;;;;;;;6.28;4.35;;;;;;;;;;5041306;28;20361;-82
2021/08/19 04:19:58;;;;;;;5.82;4.60;;;;;;;;;;5040949;28;20077;-82
2021/08/19 04:22:24;;;;;;;6.45;4.82;;;;;;;;;;5041486;28;20132;-82
2021/08/19 04:24:50;;;;;;;6.40;4.47;;;;;;;;;;5041623;28;20063;-82
2021/08/19 04:27:16;;;;;;;8.13;4.95;;;;;;;;;;5040124;28;20108;-80
2021/08/19 04:29:42;;;;;;;6.10;4.75;;;;;;;;;;5039079;28;20482;-81
2021/08/19 04:32:08;;;;;;;6.38;4.80;;;;;;;;;;5039068;28;20033;-82
2021/08/19 04:34:34;;;;;;;10.80;4.25;;;;;;;;;;5039165;28;20036;-81
2021/08/19 04:37:00;;;;;;;8.13;4.72;;;;;;;;;;5038110;28;20044;-82
2021/08/19 04:39:27;;;;;;;7.03;4.10;;;;;;;;;;5038685;28;20029;-81
2021/08/19 04:41:54;;;;;;;6.72;4.63;;;;;;;;;;5040353;28;20037;-80
2021/08/19 04:44:20;;;;;;;6.35;4.47;;;;;;;;;;5038280;28;20036;-81
2021/08/19 04:46:46;;;;;;;5.95;4.13;;;;;;;;;;5039045;28;20037;-81
2021/08/19 04:49:13;;;;;;;6.60;4.30;;;;;;;;;;5038746;28;20029;-81
2021/08/19 04:51:39;;;;;;;9.80;4.40;;;;;;;;;;5036511;28;20389;-82
2021/08/19 04:54:05;;;;;;;6.70;4.63;;;;;;;;;;5036729;28;20114;-81
2021/08/19 04:56:38;;;;;;;6.45;4.18;;;;;;;;;;5035568;28;20466;-81
2021/08/19 04:59:08;;;;;;;4.75;3.70;;;;;;;;;;5037835;28;20026;-80
2021/08/19 05:01:35;;;;;;;5.93;4.18;;;;;;;;;;5036222;28;20139;-82
2021/08/19 05:04:01;;;;;;;5.38;4.40;;;;;;;;;;5036019;28;20064;-81
2021/08/19 05:06:27;;;;;;;5.75;4.60;;;;;;;;;;5036385;28;20037;-80
2021/08/19 05:08:54;;;;;;;6.00;4.30;;;;;;;;;;5036316;28;20025;-79
2021/08/19 05:11:20;;;;;;;5.03;4.05;;;;;;;;;;5033703;28;20026;-80
2021/08/19 05:13:46;;;;;;;6.10;3.90;;;;;;;;;;5035521;28;20026;-81
2021/08/19 05:16:15;;;;;;;4.60;3.55;;;;;;;;;;5035520;28;20026;-81
2021/08/19 05:18:43;;;;;;;4.43;3.72;;;;;;;;;;5034721;28;20052;-80
2021/08/19 05:21:09;;;;;;;7.20;3.92;;;;;;;;;;5035754;28;20028;-82
2021/08/19 05:23:38;;;;;;;4.85;3.53;;;;;;;;;;5035660;28;20080;-81
2021/08/19 05:26:04;;;;;;;5.55;3.72;;;;;;;;;;5036948;28;20026;-81
2021/08/19 05:28:30;;;;;;;5.03;3.67;;;;;;;;;;5034336;28;20439;-80
2021/08/19 05:30:56;;;;;;;14.32;5.53;;;;;;;;;;5036338;28;20049;-81
2021/08/19 05:33:23;;;;;;;5.60;3.78;;;;;;;;;;5036335;28;20029;-81
2021/08/19 05:35:49;;;;;;;7.65;3.85;;;;;;;;;;5036918;28;20111;-81
2021/08/19 05:38:15;;;;;;;6.05;3.78;;;;;;;;;;5035136;28;20229;-80
2021/08/19 05:40:41;;;;;;;4.22;3.60;;;;;;;;;;5037555;28;20026;-81
2021/08/19 05:43:07;;;;;;;4.82;3.95;;;;;;;;;;5037440;28;20028;-80
2021/08/19 05:45:33;;;;;;;6.68;4.30;;;;;;;;;;5041598;28;20341;-80
2021/08/19 05:48:01;;;;;;;4.93;4.03;;;;;;;;;;5039266;28;20097;-81
2021/08/19 05:50:27;;;;;;;6.82;4.32;;;;;;;;;;5039095;28;20025;-80
2021/08/19 05:52:53;;;;;;;4.40;3.80;;;;;;;;;;5042859;28;20030;-82
2021/08/19 05:55:19;;;;;;;6.82;4.28;;;;;;;;;;5040592;28;20030;-82
2021/08/19 05:57:51;;;;;;;6.60;4.70;;;;;;;;;;5041879;28;20560;-83
2021/08/19 06:00:20;;;;;;;11.40;4.90;;;;;;;;;;5038950;28;20077;-80
2021/08/19 06:02:46;;;;;;;7.15;4.55;;;;;;;;;;5038074;28;20026;-80
2021/08/19 06:05:12;;;;;;;7.93;4.78;;;;;;;;;;5037627;28;20045;-81
2021/08/19 06:07:38;;;;;;;6.80;4.35;;;;;;;;;;5037252;28;20041;-83
2021/08/19 06:10:05;;;;;;;8.05;4.47;;;;;;;;;;5038037;28;20037;-81
2021/08/19 06:12:31;;;;;;;7.60;3.95;;;;;;;;;;5038741;28;20057;-82
2021/08/19 06:14:57;;;;;;;5.88;4.30;;;;;;;;;;5037553;28;20056;-82
2021/08/19 06:17:23;;;;;;;4.38;3.22;;;;;;;;;;5039168;28;20147;-81
2021/08/19 06:19:49;;;;;;;5.18;4.00;;;;;;;;;;5038030;28;20045;-80
2021/08/19 06:22:15;;;;;;;4.65;3.13;;;;;;;;;;5039345;28;20436;-83
2021/08/19 06:24:41;;;;;;;4.20;3.58;;;;;;;;;;5039439;28;20049;-81
2021/08/19 06:27:07;;;;;;;4.32;3.33;;;;;;;;;;5039792;28;20033;-82
2021/08/19 06:29:33;;;;;;;5.28;3.10;;;;;;;;;;5038834;28;20029;-81
2021/08/19 06:31:59;;;;;;;4.43;3.50;;;;;;;;;;5036790;28;20057;-80
2021/08/19 06:34:25;;;;;;;6.50;3.90;;;;;;;;;;5037906;28;20129;-81
2021/08/19 06:36:52;;;;;;;6.05;3.90;;;;;;;;;;5038390;28;20025;-81
2021/08/19 06:39:18;;;;;;;5.30;3.97;;;;;;;;;;5038444;28;20032;-82
2021/08/19 06:41:44;;;;;;;4.50;3.72;;;;;;;;;;5039274;28;20492;-81
2021/08/19 06:44:10;;;;;;;4.80;3.80;;;;;;;;;;5040251;28;20018;-80
2021/08/19 06:46:39;;;;;;;5.45;3.42;;;;;;;;;;5041872;28;20021;-82
2021/08/19 06:49:05;;;;;;;5.50;3.90;;;;;;;;;;5043255;28;20025;-80
2021/08/19 06:51:31;;;;;;;4.82;3.60;;;;;;;;;;5049388;28;20026;-83
2021/08/19 06:53:58;;;;;;;5.10;3.90;;;;;;;;;;5044774;28;20044;-81
2021/08/19 06:56:24;;;;;;;8.73;3.70;;;;;;;;;;5045685;28;20048;-81
2021/08/19 06:58:51;;;;;;;4.13;3.30;;;;;;;;;;5051362;28;20053;-81
2021/08/19 07:01:17;;;;;;;6.47;3.88;;;;;;;;;;5050258;28;20026;-79
2021/08/19 07:03:43;;;;;;;5.63;3.45;;;;;;;;;;5048956;28;20025;-80
2021/08/19 07:06:13;;;;;;;4.03;3.08;;;;;;;;;;5049817;28;20081;-81
2021/08/19 07:08:39;;;;;;;3.28;2.97;;;;;;;;;;5047551;28;20068;-81
2021/08/19 07:11:05;;;;;;;6.07;3.35;;;;;;;;;;5046381;28;20156;-80
2021/08/19 07:13:31;;;;;;;3.30;2.85;;;;;;;;;;5047694;28;20121;-82
2021/08/19 07:15:58;;;;;;;4.13;2.67;;;;;;;;;;5047454;28;20033;-82
2021/08/19 07:18:24;;;;;;;3.05;2.75;;;;;;;;;;5045901;28;20040;-81
2021/08/19 07:20:50;;;;;;;6.22;3.88;;;;;;;;;;5040551;28;20027;-83
2021/08/19 07:23:16;;;;;;;4.20;3.55;;;;;;;;;;5039574;28;20029;-82
2021/08/19 07:25:42;;;;;;;4.40;3.78;;;;;;;;;;5038718;28;20044;-83
2021/08/19 07:28:08;;;;;;;3.38;2.53;;;;;;;;;;5037249;28;20382;-82
2021/08/19 07:30:34;;;;;;;5.32;2.70;;;;;;;;;;5038904;28;20043;-82
2021/08/19 07:33:00;;;;;;;6.22;4.00;;;;;;;;;;5036792;28;20099;-82
2021/08/19 07:35:26;;;;;;;8.05;3.67;;;;;;;;;;5038375;28;20030;-83
2021/08/19 07:37:54;;;;;;;3.63;3.03;;;;;;;;;;5038393;28;20055;-82
2021/08/19 07:40:22;;;;;;;6.70;3.75;;;;;;;;;;5045405;28;20033;-80
2021/08/19 07:42:50;;;;;;;6.90;3.40;;;;;;;;;;5047754;28;20054;-81
2021/08/19 07:45:16;;;;;;;3.85;3.33;;;;;;;;;;5040063;28;20033;-83
2021/08/19 07:47:42;;;;;;;5.30;3.50;;;;;;;;;;5040335;28;20086;-81
2021/08/19 07:50:09;;;;;;;4.13;3.00;;;;;;;;;;5039813;28;20037;-82
2021/08/19 07:52:36;;;;;;;3.58;2.97;;;;;;;;;;5036497;28;20030;-83
2021/08/19 07:55:02;;;;;;;4.43;3.28;;;;;;;;;;5036546;28;20106;-83
2021/08/19 07:57:28;;;;;;;5.10;2.95;;;;;;;;;;5038111;28;20106;-83
2021/08/19 07:59:54;;;;;;;6.35;3.78;;;;;;;;;;5038692;28;20081;-81
2021/08/19 08:02:20;;;;;;;5.43;3.30;;;;;;;;;;5038299;28;20033;-82
2021/08/19 08:04:46;;;;;;;2.95;2.63;;;;;;;;;;5038987;28;20132;-81
2021/08/19 08:07:12;;;;;;;4.30;3.30;;;;;;;;;;5038294;28;20605;-83
2021/08/19 08:09:38;;;;;;;4.63;3.40;;;;;;;;;;5037833;28;20398;-80
2021/08/19 08:12:05;;;;;;;4.30;3.03;;;;;;;;;;5038366;28;20109;-82
2021/08/19 08:14:31;;;;;;;4.55;3.10;;;;;;;;;;5038397;28;20414;-83
2021/08/19 08:16:57;;;;;;;5.15;3.10;;;;;;;;;;5037342;28;20099;-82
2021/08/19 08:19:23;;;;;;;3.75;3.10;;;;;;;;;;5037418;28;20028;-82
2021/08/19 08:21:50;;;;;;;4.88;3.00;;;;;;;;;;5038934;28;20068;-83
2021/08/19 08:24:16;;;;;;;3.60;3.03;;;;;;;;;;5039587;28;20053;-81
2021/08/19 08:26:42;;;;;;;4.03;3.00;;;;;;;;;;5040707;28;20028;-83
2021/08/19 08:29:08;;;;;;;3.63;2.78;;;;;;;;;;5036970;28;20075;-81
2021/08/19 08:31:34;;;;;;;4.40;2.75;;;;;;;;;;5038871;28;20108;-83
2021/08/19 08:34:00;;;;;;;4.25;3.13;;;;;;;;;;5040867;28;20029;-83
2021/08/19 08:36:26;;;;;;;2.33;2.13;;;;;;;;;;5040048;28;20041;-82
2021/08/19 08:38:52;;;;;;;3.20;2.42;;;;;;;;;;5038344;28;20085;-83
2021/08/19 08:41:22;;;;;;;2.50;2.22;;;;;;;;;;5038590;28;20022;-83
2021/08/19 08:43:48;;;;;;;2.38;2.17;;;;;;;;;;5037695;28;20022;-82
2021/08/19 08:46:16;;;;;;;2.38;2.15;;;;;;;;;;5037469;28;20021;-82
2021/08/19 08:48:44;;;;;;;4.72;2.50;;;;;;;;;;5038419;28;20022;-82
2021/08/19 08:51:10;;;;;;;2.60;2.10;;;;;;;;;;5038051;28;20040;-82
2021/08/19 08:53:36;;;;;;;2.03;1.80;;;;;;;;;;5037361;28;20132;-82
2021/08/19 08:56:02;;;;;;;2.40;1.52;;;;;;;;;;5040062;28;20048;-82
2021/08/19 08:58:28;;;;;;;2.22;2.03;;;;;;;;;;5038643;28;20041;-81
2021/08/19 09:00:54;;;;;;;2.72;2.13;;;;;;;;;;5040183;28;20044;-84
2021/08/19 09:03:21;;;;;;;3.63;2.13;;;;;;;;;;5040117;28;20026;-82
2021/08/19 09:05:48;;;;;;;1.80;1.65;;;;;;;;;;5039622;28;20025;-82
2021/08/19 09:08:15;;;;;;;4.95;2.15;;;;;;;;;;5040380;28;20056;-81
2021/08/19 09:10:41;;;;;;;1.65;1.50;;;;;;;;;;5040079;28;20086;-82
2021/08/19 09:13:09;;;;;;;1.40;1.30;;;;;;;;;;5037035;28;20559;-83
2021/08/19 09:15:35;;;;;;;2.28;1.60;;;;;;;;;;5038929;28;20025;-82
2021/08/19 09:18:02;;;;;;;1.75;1.60;;;;;;;;;;5039718;28;20036;-84
2021/08/19 09:20:35;;;;;;;2.00;1.80;;;;;;;;;;5049747;28;20041;-83
2021/08/19 09:23:01;;;;;;;2.38;1.58;;;;;;;;;;5048753;28;20032;-81
2021/08/19 09:25:46;;;;;;;3.15;1.65;;;;;;;;;;5048631;28;20021;-81
2021/08/19 09:28:12;;;;;;;1.75;1.50;;;;;;;;;;5047774;28;20025;-82
2021/08/19 09:30:40;;;;;;;1.10;1.05;;;;;;;;;;5052223;28;20038;-82
2021/08/19 09:33:09;;;;;;;2.15;1.00;;;;;;;;;;5043057;28;20108;-80
2021/08/19 09:35:35;;;;;;;1.30;1.20;;;;;;;;;;5045059;28;20044;-83
2021/08/19 09:38:07;;;;;;;0.80;0.80;;;;;;;;;;5045845;28;20022;-83
2021/08/19 09:40:34;;;;;;;1.05;1.00;;;;;;;;;;5045484;28;20029;-81
2021/08/19 09:43:00;;;;;;;0.95;0.90;;;;;;;;;;5043653;28;20028;-82
2021/08/19 09:45:26;;;;;;;1.05;1.05;;;;;;;;;;5044781;28;20100;-82
2021/08/19 09:47:53;;;;;;;1.33;1.20;;;;;;;;;;5043273;28;20177;-83
2021/08/19 09:50:19;;;;;;;0.70;0.70;;;;;;;;;;5041754;28;20108;-83
2021/08/19 09:52:46;;;;;;;3.15;1.20;;;;;;;;;;5052208;28;20029;-81
2021/08/19 09:55:32;;;;;;;1.30;1.08;;;;;;;;;;5045168;28;20030;-80
2021/08/19 09:57:59;;;;;;;1.02;1.02;;;;;;;;;;5038434;28;20029;-81
2021/08/19 10:00:26;;;;;;;1.08;1.05;;;;;;;;;;5039875;28;20025;-80
2021/08/19 10:02:52;;;;;;;1.00;1.00;;;;;;;;;;5037928;28;20108;-82
2021/08/19 10:05:18;;;;;;;4.55;1.17;;;;;;;;;;5039869;28;20021;-80
2021/08/19 10:07:44;;;;;;;1.83;1.13;;;;;;;;;;5039121;28;20507;-81
2021/08/19 10:10:11;;;;;;;2.00;0.90;;;;;;;;;;5040176;28;20064;-82
2021/08/19 10:12:41;;;;;;;1.40;1.17;;;;;;;;;;5040422;28;20036;-80
2021/08/19 10:15:07;;;;;;;1.70;1.10;;;;;;;;;;5039449;28;20025;-81
2021/08/19 10:17:34;;;;;;;0.90;0.90;;;;;;;;;;5038241;28;20102;-81
2021/08/19 10:20:02;;;;;;;1.20;1.02;;;;;;;;;;5038419;28;20088;-83
2021/08/19 10:22:32;;;;;;;0.95;0.90;;;;;;;;;;5040848;28;20113;-83
2021/08/19 10:24:58;;;;;;;2.90;0.70;;;;;;;;;;5039551;28;20375;-80
2021/08/19 10:27:25;;;;;;;1.75;0.90;;;;;;;;;;5040316;28;20040;-82
2021/08/19 10:30:03;;;;;;;1.50;1.00;;;;;;;;;;5039783;28;20493;-81
2021/08/19 10:32:40;;;;;;;0.95;0.90;;;;;;;;;;5040324;28;20040;-82
2021/08/19 10:35:10;;;;;;;2.03;1.20;;;;;;;;;;5040049;28;20259;-81
2021/08/19 10:37:48;;;;;;;2.35;1.10;;;;;;;;;;5039485;28;20037;-82
2021/08/19 10:40:20;;;;;;;1.00;0.95;;;;;;;;;;5039597;28;20045;-81
2021/08/19 10:42:47;;;;;;;0.88;0.88;;;;;;;;;;5039175;28;20401;-82
2021/08/19 10:45:28;;;;;;;1.90;1.40;;;;;;;;;;5040050;28;20022;-82
2021/08/19 10:48:09;;;;;;;1.75;1.17;;;;;;;;;;5037290;28;20026;-81
2021/08/19 10:50:42;;;;;;;2.17;1.13;;;;;;;;;;5055727;23;20052;-84
2021/08/19 10:53:14;;;;;;;1.20;1.10;;;;;;;;;;5045026;28;20017;-86
2021/08/19 10:55:45;;;;;;;2.22;1.50;;;;;;;;;;5051459;28;20037;-85
2021/08/19 10:58:27;;;;;;;2.30;1.25;;;;;;;;;;5045794;28;20040;-84
2021/08/19 11:01:22;;;;;;;1.38;1.27;;;;;;;;;;5043160;28;20060;-84
2021/08/19 11:03:50;;;;;;;1.40;1.30;;;;;;;;;;5052994;28;20025;-83
2021/08/19 11:06:17;;;;;;;4.13;1.63;;;;;;;;;;5053594;28;20052;-84
2021/08/19 11:08:57;;;;;;;1.33;1.13;;;;;;;;;;5046559;28;20026;-85
2021/08/19 11:11:37;;;;;;;1.30;1.20;;;;;;;;;;5044993;28;20026;-86
2021/08/19 11:14:09;;;;;;;2.92;1.40;;;;;;;;;;5047373;28;20087;-85
2021/08/19 11:16:36;;;;;;;3.17;1.48;;;;;;;;;;5053075;28;20025;-84
2021/08/19 11:19:12;;;;;;;1.40;1.30;;;;;;;;;;5053996;28;20021;-83
2021/08/19 11:21:38;;;;;;;2.40;1.55;;;;;;;;;;5053716;28;20041;-85
2021/08/19 11:24:06;;;;;;;1.02;1.02;;;;;;;;;;5055686;28;20111;-85
2021/08/19 11:26:32;;;;;;;1.50;1.40;;;;;;;;;;5042575;28;20089;-85
2021/08/19 11:28:58;;;;;;;1.10;1.10;;;;;;;;;;5041482;28;20036;-84
2021/08/19 11:31:25;;;;;;;1.35;1.25;;;;;;;;;;5044632;28;20030;-86
2021/08/19 11:34:01;;;;;;;2.08;1.63;;;;;;;;;;5044847;28;20096;-85
2021/08/19 11:36:28;;;;;;;3.50;2.17;;;;;;;;;;5041226;28;20426;-84
2021/08/19 11:38:58;;;;;;;1.70;1.60;;;;;;;;;;5041588;28;20401;-85
2021/08/19 11:41:24;;;;;;;1.65;1.40;;;;;;;;;;5039604;28;20028;-86
2021/08/19 11:43:50;;;;;;;1.88;1.70;;;;;;;;;;5040615;28;20033;-84
2021/08/19 11:46:23;;;;;;;1.65;1.55;;;;;;;;;;5044871;28;20033;-83
2021/08/19 11:48:50;;;;;;;1.65;1.55;;;;;;;;;;5043867;28;20538;-85
2021/08/19 11:51:36;;;;;;;3.05;1.50;;;;;;;;;;5047001;28;20026;-85
2021/08/19 11:54:04;;;;;;;1.70;1.60;;;;;;;;;;5042994;28;20029;-86
2021/08/19 11:56:34;;;;;;;1.65;1.55;;;;;;;;;;5043796;28;20025;-86
2021/08/19 11:59:05;;;;;;;1.80;1.70;;;;;;;;;;5040616;28;20029;-85
2021/08/19 12:01:31;;;;;;;1.30;1.20;;;;;;;;;;5041248;28;20358;-84
2021/08/19 12:03:57;;;;;;;2.92;2.20;;;;;;;;;;5042295;28;20022;-85
2021/08/19 12:06:27;;;;;;;3.05;1.65;;;;;;;;;;5040706;28;20028;-84
2021/08/19 12:08:54;;;;;;;2.75;2.03;;;;;;;;;;5041702;28;20026;-84
2021/08/19 12:11:21;;;;;;;1.85;1.50;;;;;;;;;;5040531;28;20040;-86
2021/08/19 12:13:50;;;;;;;3.10;1.48;;;;;;;;;;5040786;28;20446;-86
2021/08/19 12:16:19;;;;;;;2.67;1.95;;;;;;;;;;5039578;28;20093;-85
2021/08/19 12:18:45;;;;;;;1.70;1.60;;;;;;;;;;5041985;28;20025;-85
2021/08/19 12:21:15;;;;;;;2.97;2.05;;;;;;;;;;5045082;28;20100;-83
2021/08/19 12:23:42;;;;;;;1.63;1.52;;;;;;;;;;5055003;28;20095;-83
2021/08/19 12:26:12;;;;;;;1.80;1.70;;;;;;;;;;5048742;28;20097;-85
2021/08/19 12:28:38;;;;;;;1.63;1.50;;;;;;;;;;5046964;28;20021;-85
2021/08/19 12:31:08;;;;;;;2.38;2.00;;;;;;;;;;5050868;28;20121;-84
2021/08/19 12:33:38;;;;;;;1.67;1.58;;;;;;;;;;5050267;28;20092;-85
2021/08/19 12:36:18;;;;;;;2.33;1.65;;;;;;;;;;5048014;28;20029;-84
2021/08/19 12:38:46;;;;;;;2.10;1.90;;;;;;;;;;5049999;28;20025;-84
2021/08/19 12:41:16;;;;;;;1.80;1.70;;;;;;;;;;5047793;28;20514;-85
2021/08/19 12:43:43;;;;;;;1.63;1.52;;;;;;;;;;5042215;28;20045;-84
2021/08/19 12:46:10;;;;;;;2.35;1.73;;;;;;;;;;5042666;28;20032;-85
2021/08/19 12:48:36;;;;;;;2.20;1.85;;;;;;;;;;5043514;28;20025;-85
2021/08/19 12:51:26;;;;;;;2.55;2.00;;;;;;;;;;5041901;28;20442;-86
2021/08/19 12:54:09;;;;;;;2.85;2.03;;;;;;;;;;5041120;28;20018;-84
2021/08/19 12:56:37;;;;;;;1.63;1.52;;;;;;;;;;5039456;28;20034;-85
2021/08/19 12:59:04;;;;;;;2.33;2.13;;;;;;;;;;5039950;28;20041;-85
2021/08/19 13:01:30;;;;;;;1.88;1.70;;;;;;;;;;5050147;28;20025;-84
2021/08/19 13:03:56;;;;;;;2.38;1.67;;;;;;;;;;5041194;28;20398;-85
2021/08/19 13:06:22;;;;;;;2.75;1.35;;;;;;;;;;5041214;28;20026;-84
2021/08/19 13:08:49;;;;;;;2.00;1.90;;;;;;;;;;5045294;28;20021;-86
2021/08/19 13:11:15;;;;;;;2.08;1.63;;;;;;;;;;5046655;28;20021;-85
2021/08/19 13:13:42;;;;;;;1.85;1.75;;;;;;;;;;5043857;28;20334;-85
2021/08/19 13:16:08;;;;;;;1.50;1.40;;;;;;;;;;5041622;28;20024;-84
2021/08/19 13:18:34;;;;;;;1.92;1.70;;;;;;;;;;5042579;28;20044;-83
2021/08/19 13:21:03;;;;;;;4.55;2.65;;;;;;;;;;5039000;28;20116;-85
2021/08/19 13:23:29;;;;;;;2.92;2.00;;;;;;;;;;5041841;28;20018;-85
2021/08/19 13:25:55;;;;;;;1.92;1.67;;;;;;;;;;5046196;28;20025;-84
2021/08/19 13:28:21;;;;;;;2.10;1.90;;;;;;;;;;5046635;28;20040;-84
2021/08/19 13:30:47;;;;;;;1.75;1.65;;;;;;;;;;5045904;28;20033;-85
2021/08/19 13:33:14;;;;;;;1.38;1.27;;;;;;;;;;5047612;28;20129;-84
2021/08/19 13:35:40;;;;;;;3.63;1.80;;;;;;;;;;5040100;28;20068;-84
2021/08/19 13:38:07;;;;;;;1.63;1.52;;;;;;;;;;5039346;28;20029;-84
2021/08/19 13:40:33;;;;;;;2.17;1.77;;;;;;;;;;5042769;28;20030;-82
2021/08/19 13:42:59;;;;;;;1.95;1.85;;;;;;;;;;5038133;28;20029;-83
2021/08/19 13:45:25;;;;;;;2.75;2.30;;;;;;;;;;5037792;28;20026;-83
2021/08/19 13:47:52;;;;;;;3.53;1.65;;;;;;;;;;5050330;28;20029;-82
2021/08/19 13:50:18;;;;;;;1.90;1.80;;;;;;;;;;5045650;28;20037;-84
2021/08/19 13:52:44;;;;;;;3.42;2.53;;;;;;;;;;5038167;28;20175;-82
2021/08/19 13:55:10;;;;;;;2.10;1.90;;;;;;;;;;5037793;28;20041;-82
2021/08/19 13:57:36;;;;;;;1.85;1.73;;;;;;;;;;5037902;28;20084;-84
2021/08/19 14:00:03;;;;;;;3.53;2.22;;;;;;;;;;5036015;28;20034;-85
2021/08/19 14:02:29;;;;;;;1.92;1.80;;;;;;;;;;5037374;28;20419;-84
2021/08/19 14:04:55;;;;;;;2.25;2.05;;;;;;;;;;5041978;28;20022;-85
2021/08/19 14:07:22;;;;;;;2.20;2.00;;;;;;;;;;5041932;28;20033;-85
2021/08/19 14:09:49;;;;;;;2.88;1.70;;;;;;;;;;5040405;28;20033;-83
2021/08/19 14:12:15;;;;;;;1.83;1.73;;;;;;;;;;5040761;28;20052;-84
2021/08/19 14:14:41;;;;;;;2.60;2.40;;;;;;;;;;5042674;28;20037;-83
2021/08/19 14:17:09;;;;;;;2.78;2.42;;;;;;;;;;5043633;28;20056;-83
2021/08/19 14:19:35;;;;;;;2.05;1.80;;;;;;;;;;5043804;28;20026;-82
2021/08/19 14:22:03;;;;;;;2.55;2.10;;;;;;;;;;5048986;28;20026;-82
2021/08/19 14:24:31;;;;;;;4.80;2.60;;;;;;;;;;5054980;28;20010;-83
2021/08/19 14:27:01;;;;;;;2.22;2.03;;;;;;;;;;5053630;28;20101;-83
2021/08/19 14:29:27;;;;;;;2.50;2.30;;;;;;;;;;5042608;28;20458;-83
2021/08/19 14:31:53;;;;;;;2.20;1.92;;;;;;;;;;5041594;28;20038;-84
2021/08/19 14:34:19;;;;;;;2.35;2.15;;;;;;;;;;5042700;28;20025;-83
2021/08/19 14:36:45;;;;;;;2.17;1.98;;;;;;;;;;5042577;28;20029;-84
2021/08/19 14:39:12;;;;;;;2.33;2.13;;;;;;;;;;5044067;28;20045;-85
2021/08/19 14:41:38;;;;;;;2.45;2.03;;;;;;;;;;5045376;28;20072;-84
2021/08/19 14:44:05;;;;;;;2.60;2.10;;;;;;;;;;5046222;28;20090;-82
2021/08/19 14:46:31;;;;;;;1.80;1.70;;;;;;;;;;5045876;28;20478;-85